sensor_id;sensor_type;location;lat;lon;timestamp;P1;durP1;ratioP1;P2;durP2;ratioP2
12155;SDS011;6141;49.092;8.516;2023-08-31T00:00:33;4.73;;;2.27;;
12155;SDS011;6141;49.092;8.516;2023-08-31T00:03:22;2.93;;;2.33;;
12155;SDS011;6141;49.092;8.516;2023-08-31T00:06:12;3.63;;;2.33;;
12155;SDS011;6141;49.092;8.516;2023-08-31T00:09:00;3.13;;;2.30;;
12155;SDS011;6141;49.092;8.516;2023-08-31T00:11:51;2.87;;;2.17;;
12155;SDS011;6141;49.092;8.516;2023-08-31T00:14:40;6.00;;;2.70;;
12155;SDS011;6141;49.092;8.516;2023-08-31T00:17:29;3.60;;;2.37;;
12155;SDS011;6141;49.092;8.516;2023-08-31T00:20:17;3.23;;;2.67;;
12155;SDS011;6141;49.092;8.516;2023-08-31T00:26:59;3.43;;;2.97;;
12155;SDS011;6141;49.092;8.516;2023-08-31T00:33:12;4.33;;;3.07;;
12155;SDS011;6141;49.092;8.516;2023-08-31T00:36:01;2.93;;;2.40;;
12155;SDS011;6141;49.092;8.516;2023-08-31T00:38:50;4.43;;;2.97;;
12155;SDS011;6141;49.092;8.516;2023-08-31T00:41:38;3.80;;;2.90;;
12155;SDS011;6141;49.092;8.516;2023-08-31T00:44:28;4.97;;;2.83;;
12155;SDS011;6141;49.092;8.516;2023-08-31T00:47:16;3.43;;;3.13;;
12155;SDS011;6141;49.092;8.516;2023-08-31T00:50:07;4.80;;;2.70;;
12155;SDS011;6141;49.092;8.516;2023-08-31T00:52:57;3.87;;;2.80;;
12155;SDS011;6141;49.092;8.516;2023-08-31T00:55:45;4.73;;;2.73;;
12155;SDS011;6141;49.092;8.516;2023-08-31T00:58:34;4.20;;;3.50;;
12155;SDS011;6141;49.092;8.516;2023-08-31T01:01:25;3.23;;;2.80;;
12155;SDS011;6141;49.092;8.516;2023-08-31T01:04:21;3.50;;;2.70;;
12155;SDS011;6141;49.092;8.516;2023-08-31T01:07:20;3.00;;;2.70;;
12155;SDS011;6141;49.092;8.516;2023-08-31T01:10:15;3.37;;;3.07;;
12155;SDS011;6141;49.092;8.516;2023-08-31T01:13:11;4.03;;;3.30;;
12155;SDS011;6141;49.092;8.516;2023-08-31T01:16:03;5.33;;;3.00;;
12155;SDS011;6141;49.092;8.516;2023-08-31T01:18:56;4.00;;;3.20;;
12155;SDS011;6141;49.092;8.516;2023-08-31T01:21:45;4.33;;;3.40;;
12155;SDS011;6141;49.092;8.516;2023-08-31T01:24:40;4.37;;;3.30;;
12155;SDS011;6141;49.092;8.516;2023-08-31T01:27:29;4.10;;;3.57;;
12155;SDS011;6141;49.092;8.516;2023-08-31T01:30:18;4.83;;;3.47;;
12155;SDS011;6141;49.092;8.516;2023-08-31T01:33:06;4.47;;;3.60;;
12155;SDS011;6141;49.092;8.516;2023-08-31T01:35:55;4.60;;;3.87;;
12155;SDS011;6141;49.092;8.516;2023-08-31T01:38:48;4.30;;;3.43;;
12155;SDS011;6141;49.092;8.516;2023-08-31T01:41:44;7.10;;;3.30;;
12155;SDS011;6141;49.092;8.516;2023-08-31T01:44:39;3.87;;;3.23;;
12155;SDS011;6141;49.092;8.516;2023-08-31T01:47:27;4.43;;;3.37;;
12155;SDS011;6141;49.092;8.516;2023-08-31T01:50:16;4.00;;;3.00;;
12155;SDS011;6141;49.092;8.516;2023-08-31T01:53:05;5.80;;;3.47;;
12155;SDS011;6141;49.092;8.516;2023-08-31T01:55:53;3.80;;;3.30;;
12155;SDS011;6141;49.092;8.516;2023-08-31T01:58:43;7.10;;;3.13;;
12155;SDS011;6141;49.092;8.516;2023-08-31T02:01:32;5.47;;;3.10;;
12155;SDS011;6141;49.092;8.516;2023-08-31T02:04:20;4.30;;;3.33;;
12155;SDS011;6141;49.092;8.516;2023-08-31T02:07:09;4.67;;;3.40;;
12155;SDS011;6141;49.092;8.516;2023-08-31T02:09:57;3.93;;;3.20;;
12155;SDS011;6141;49.092;8.516;2023-08-31T02:12:45;4.63;;;3.27;;
12155;SDS011;6141;49.092;8.516;2023-08-31T02:15:38;4.00;;;3.13;;
12155;SDS011;6141;49.092;8.516;2023-08-31T02:18:26;3.80;;;3.17;;
12155;SDS011;6141;49.092;8.516;2023-08-31T02:21:15;5.07;;;3.10;;
12155;SDS011;6141;49.092;8.516;2023-08-31T02:24:04;6.03;;;3.37;;
12155;SDS011;6141;49.092;8.516;2023-08-31T02:26:53;4.07;;;2.97;;
12155;SDS011;6141;49.092;8.516;2023-08-31T02:29:41;4.93;;;2.80;;
12155;SDS011;6141;49.092;8.516;2023-08-31T02:32:31;4.97;;;2.80;;
12155;SDS011;6141;49.092;8.516;2023-08-31T02:35:19;3.03;;;2.73;;
12155;SDS011;6141;49.092;8.516;2023-08-31T02:38:08;3.00;;;2.70;;
12155;SDS011;6141;49.092;8.516;2023-08-31T02:40:56;4.50;;;2.50;;
12155;SDS011;6141;49.092;8.516;2023-08-31T02:43:47;3.10;;;2.30;;
12155;SDS011;6141;49.092;8.516;2023-08-31T02:46:38;3.00;;;2.70;;
12155;SDS011;6141;49.092;8.516;2023-08-31T02:49:28;4.67;;;3.10;;
12155;SDS011;6141;49.092;8.516;2023-08-31T02:52:16;3.23;;;2.77;;
12155;SDS011;6141;49.092;8.516;2023-08-31T02:55:05;3.17;;;2.77;;
12155;SDS011;6141;49.092;8.516;2023-08-31T02:57:54;6.13;;;3.13;;
12155;SDS011;6141;49.092;8.516;2023-08-31T03:00:42;4.77;;;3.17;;
12155;SDS011;6141;49.092;8.516;2023-08-31T03:03:32;5.13;;;3.20;;
12155;SDS011;6141;49.092;8.516;2023-08-31T03:06:23;6.43;;;3.30;;
12155;SDS011;6141;49.092;8.516;2023-08-31T03:09:11;4.03;;;3.03;;
12155;SDS011;6141;49.092;8.516;2023-08-31T03:12:00;7.23;;;3.37;;
12155;SDS011;6141;49.092;8.516;2023-08-31T03:14:48;5.60;;;3.23;;
12155;SDS011;6141;49.092;8.516;2023-08-31T03:17:37;3.73;;;3.30;;
12155;SDS011;6141;49.092;8.516;2023-08-31T03:20:28;4.43;;;3.47;;
12155;SDS011;6141;49.092;8.516;2023-08-31T03:23:19;4.27;;;3.00;;
12155;SDS011;6141;49.092;8.516;2023-08-31T03:26:08;4.20;;;2.90;;
12155;SDS011;6141;49.092;8.516;2023-08-31T03:28:56;4.73;;;3.03;;
12155;SDS011;6141;49.092;8.516;2023-08-31T03:31:45;3.87;;;2.60;;
12155;SDS011;6141;49.092;8.516;2023-08-31T03:34:35;5.73;;;3.20;;
12155;SDS011;6141;49.092;8.516;2023-08-31T03:37:23;5.47;;;3.47;;
12155;SDS011;6141;49.092;8.516;2023-08-31T03:40:13;3.20;;;2.87;;
12155;SDS011;6141;49.092;8.516;2023-08-31T03:43:02;3.77;;;3.27;;
12155;SDS011;6141;49.092;8.516;2023-08-31T03:45:53;5.57;;;3.43;;
12155;SDS011;6141;49.092;8.516;2023-08-31T03:48:43;4.17;;;3.27;;
12155;SDS011;6141;49.092;8.516;2023-08-31T03:51:32;4.87;;;3.23;;
12155;SDS011;6141;49.092;8.516;2023-08-31T03:54:21;5.50;;;3.57;;
12155;SDS011;6141;49.092;8.516;2023-08-31T03:57:12;4.00;;;3.40;;
12155;SDS011;6141;49.092;8.516;2023-08-31T04:00:00;4.97;;;3.23;;
12155;SDS011;6141;49.092;8.516;2023-08-31T04:02:59;4.67;;;3.33;;
12155;SDS011;6141;49.092;8.516;2023-08-31T04:05:48;4.23;;;3.20;;
12155;SDS011;6141;49.092;8.516;2023-08-31T04:08:41;4.00;;;3.37;;
12155;SDS011;6141;49.092;8.516;2023-08-31T04:11:29;4.73;;;3.20;;
12155;SDS011;6141;49.092;8.516;2023-08-31T04:14:19;5.00;;;3.87;;
12155;SDS011;6141;49.092;8.516;2023-08-31T04:17:07;7.87;;;4.00;;
12155;SDS011;6141;49.092;8.516;2023-08-31T04:19:56;6.13;;;3.53;;
12155;SDS011;6141;49.092;8.516;2023-08-31T04:22:44;7.23;;;3.37;;
12155;SDS011;6141;49.092;8.516;2023-08-31T04:25:32;3.90;;;3.50;;
12155;SDS011;6141;49.092;8.516;2023-08-31T04:28:21;5.13;;;3.40;;
12155;SDS011;6141;49.092;8.516;2023-08-31T04:31:10;4.50;;;3.40;;
12155;SDS011;6141;49.092;8.516;2023-08-31T04:33:59;4.20;;;3.40;;
12155;SDS011;6141;49.092;8.516;2023-08-31T04:36:47;3.67;;;3.30;;
12155;SDS011;6141;49.092;8.516;2023-08-31T04:39:36;6.50;;;3.17;;
12155;SDS011;6141;49.092;8.516;2023-08-31T04:42:24;3.77;;;3.30;;
12155;SDS011;6141;49.092;8.516;2023-08-31T04:45:12;5.00;;;3.33;;
12155;SDS011;6141;49.092;8.516;2023-08-31T04:48:03;4.90;;;3.23;;
12155;SDS011;6141;49.092;8.516;2023-08-31T04:50:55;5.97;;;3.37;;
12155;SDS011;6141;49.092;8.516;2023-08-31T04:53:44;5.23;;;3.47;;
12155;SDS011;6141;49.092;8.516;2023-08-31T04:56:32;5.60;;;3.43;;
12155;SDS011;6141;49.092;8.516;2023-08-31T04:59:21;5.17;;;3.10;;
12155;SDS011;6141;49.092;8.516;2023-08-31T05:02:09;3.97;;;2.90;;
12155;SDS011;6141;49.092;8.516;2023-08-31T05:04:59;6.33;;;3.57;;
12155;SDS011;6141;49.092;8.516;2023-08-31T05:07:48;6.53;;;2.87;;
12155;SDS011;6141;49.092;8.516;2023-08-31T05:10:36;5.50;;;3.00;;
12155;SDS011;6141;49.092;8.516;2023-08-31T05:13:25;4.87;;;2.83;;
12155;SDS011;6141;49.092;8.516;2023-08-31T05:16:13;3.30;;;2.73;;
12155;SDS011;6141;49.092;8.516;2023-08-31T05:19:02;4.50;;;3.20;;
12155;SDS011;6141;49.092;8.516;2023-08-31T05:21:52;4.60;;;3.40;;
12155;SDS011;6141;49.092;8.516;2023-08-31T05:24:40;5.37;;;3.20;;
12155;SDS011;6141;49.092;8.516;2023-08-31T05:27:28;5.07;;;2.90;;
12155;SDS011;6141;49.092;8.516;2023-08-31T05:30:17;5.77;;;3.10;;
12155;SDS011;6141;49.092;8.516;2023-08-31T05:33:05;4.13;;;2.60;;
12155;SDS011;6141;49.092;8.516;2023-08-31T05:35:54;3.17;;;2.70;;
12155;SDS011;6141;49.092;8.516;2023-08-31T05:38:43;5.97;;;2.93;;
12155;SDS011;6141;49.092;8.516;2023-08-31T05:41:32;4.47;;;2.40;;
12155;SDS011;6141;49.092;8.516;2023-08-31T05:44:21;3.53;;;2.80;;
12155;SDS011;6141;49.092;8.516;2023-08-31T05:47:10;4.40;;;2.53;;
12155;SDS011;6141;49.092;8.516;2023-08-31T05:49:58;4.20;;;2.70;;
12155;SDS011;6141;49.092;8.516;2023-08-31T05:52:46;4.73;;;2.40;;
12155;SDS011;6141;49.092;8.516;2023-08-31T05:55:36;6.17;;;2.50;;
12155;SDS011;6141;49.092;8.516;2023-08-31T05:58:24;4.00;;;2.30;;
12155;SDS011;6141;49.092;8.516;2023-08-31T06:01:13;4.53;;;2.70;;
12155;SDS011;6141;49.092;8.516;2023-08-31T06:04:01;5.43;;;2.80;;
12155;SDS011;6141;49.092;8.516;2023-08-31T06:06:50;6.03;;;3.07;;
12155;SDS011;6141;49.092;8.516;2023-08-31T06:09:40;5.00;;;2.67;;
12155;SDS011;6141;49.092;8.516;2023-08-31T06:12:30;4.40;;;2.40;;
12155;SDS011;6141;49.092;8.516;2023-08-31T06:15:19;7.73;;;3.10;;
12155;SDS011;6141;49.092;8.516;2023-08-31T06:18:07;5.17;;;2.40;;
12155;SDS011;6141;49.092;8.516;2023-08-31T06:20:55;6.90;;;3.00;;
12155;SDS011;6141;49.092;8.516;2023-08-31T06:23:44;3.63;;;2.50;;
12155;SDS011;6141;49.092;8.516;2023-08-31T06:26:32;6.13;;;2.77;;
12155;SDS011;6141;49.092;8.516;2023-08-31T06:29:22;3.90;;;2.47;;
12155;SDS011;6141;49.092;8.516;2023-08-31T06:32:10;4.33;;;2.47;;
12155;SDS011;6141;49.092;8.516;2023-08-31T06:34:59;4.47;;;2.47;;
12155;SDS011;6141;49.092;8.516;2023-08-31T06:37:47;5.47;;;2.20;;
12155;SDS011;6141;49.092;8.516;2023-08-31T06:40:37;7.20;;;2.50;;
12155;SDS011;6141;49.092;8.516;2023-08-31T06:43:25;4.37;;;2.40;;
12155;SDS011;6141;49.092;8.516;2023-08-31T06:46:15;3.90;;;2.30;;
12155;SDS011;6141;49.092;8.516;2023-08-31T06:49:11;4.07;;;2.50;;
12155;SDS011;6141;49.092;8.516;2023-08-31T06:51:59;6.03;;;2.80;;
12155;SDS011;6141;49.092;8.516;2023-08-31T06:54:52;3.53;;;2.50;;
12155;SDS011;6141;49.092;8.516;2023-08-31T06:57:41;4.80;;;2.47;;
12155;SDS011;6141;49.092;8.516;2023-08-31T07:00:30;4.70;;;2.40;;
12155;SDS011;6141;49.092;8.516;2023-08-31T07:03:21;5.50;;;2.47;;
12155;SDS011;6141;49.092;8.516;2023-08-31T07:06:13;5.93;;;2.23;;
12155;SDS011;6141;49.092;8.516;2023-08-31T07:09:01;3.87;;;2.30;;
12155;SDS011;6141;49.092;8.516;2023-08-31T07:11:52;5.70;;;2.33;;
12155;SDS011;6141;49.092;8.516;2023-08-31T07:14:40;6.03;;;2.40;;
12155;SDS011;6141;49.092;8.516;2023-08-31T07:17:29;4.70;;;2.40;;
12155;SDS011;6141;49.092;8.516;2023-08-31T07:20:18;5.27;;;2.10;;
12155;SDS011;6141;49.092;8.516;2023-08-31T07:23:07;3.17;;;1.97;;
12155;SDS011;6141;49.092;8.516;2023-08-31T07:25:56;4.40;;;2.20;;
12155;SDS011;6141;49.092;8.516;2023-08-31T07:28:46;6.33;;;2.50;;
12155;SDS011;6141;49.092;8.516;2023-08-31T07:31:35;4.77;;;2.40;;
12155;SDS011;6141;49.092;8.516;2023-08-31T07:34:23;5.30;;;2.77;;
12155;SDS011;6141;49.092;8.516;2023-08-31T07:37:13;8.30;;;2.70;;
12155;SDS011;6141;49.092;8.516;2023-08-31T07:40:01;4.57;;;2.40;;
12155;SDS011;6141;49.092;8.516;2023-08-31T07:42:55;4.37;;;2.40;;
12155;SDS011;6141;49.092;8.516;2023-08-31T07:45:43;4.47;;;2.30;;
12155;SDS011;6141;49.092;8.516;2023-08-31T07:48:32;5.50;;;2.33;;
12155;SDS011;6141;49.092;8.516;2023-08-31T07:51:20;3.80;;;2.17;;
12155;SDS011;6141;49.092;8.516;2023-08-31T07:54:11;6.13;;;2.33;;
12155;SDS011;6141;49.092;8.516;2023-08-31T07:57:07;4.67;;;2.03;;
12155;SDS011;6141;49.092;8.516;2023-08-31T07:59:55;4.27;;;2.40;;
12155;SDS011;6141;49.092;8.516;2023-08-31T08:02:44;4.53;;;2.13;;
12155;SDS011;6141;49.092;8.516;2023-08-31T08:05:33;6.53;;;2.10;;
12155;SDS011;6141;49.092;8.516;2023-08-31T08:08:21;4.30;;;2.17;;
12155;SDS011;6141;49.092;8.516;2023-08-31T08:11:11;5.50;;;2.30;;
12155;SDS011;6141;49.092;8.516;2023-08-31T08:14:18;4.83;;;2.10;;
12155;SDS011;6141;49.092;8.516;2023-08-31T08:17:06;4.13;;;2.30;;
12155;SDS011;6141;49.092;8.516;2023-08-31T08:19:55;4.20;;;2.10;;
12155;SDS011;6141;49.092;8.516;2023-08-31T08:22:43;5.83;;;2.20;;
12155;SDS011;6141;49.092;8.516;2023-08-31T08:25:32;5.87;;;2.03;;
12155;SDS011;6141;49.092;8.516;2023-08-31T08:28:22;5.63;;;1.87;;
12155;SDS011;6141;49.092;8.516;2023-08-31T08:31:10;2.47;;;1.70;;
12155;SDS011;6141;49.092;8.516;2023-08-31T08:33:59;4.80;;;2.13;;
12155;SDS011;6141;49.092;8.516;2023-08-31T08:36:48;5.37;;;1.80;;
12155;SDS011;6141;49.092;8.516;2023-08-31T08:39:36;4.47;;;2.20;;
12155;SDS011;6141;49.092;8.516;2023-08-31T08:42:25;5.40;;;2.00;;
12155;SDS011;6141;49.092;8.516;2023-08-31T08:45:18;4.97;;;2.20;;
12155;SDS011;6141;49.092;8.516;2023-08-31T08:48:12;4.07;;;1.83;;
12155;SDS011;6141;49.092;8.516;2023-08-31T08:51:02;4.40;;;2.20;;
12155;SDS011;6141;49.092;8.516;2023-08-31T08:53:51;4.53;;;2.23;;
12155;SDS011;6141;49.092;8.516;2023-08-31T08:56:40;2.90;;;1.90;;
12155;SDS011;6141;49.092;8.516;2023-08-31T08:59:29;4.60;;;2.00;;
12155;SDS011;6141;49.092;8.516;2023-08-31T09:02:19;4.43;;;2.30;;
12155;SDS011;6141;49.092;8.516;2023-08-31T09:05:09;3.60;;;2.07;;
12155;SDS011;6141;49.092;8.516;2023-08-31T09:08:00;4.70;;;2.10;;
12155;SDS011;6141;49.092;8.516;2023-08-31T09:10:49;5.13;;;2.00;;
12155;SDS011;6141;49.092;8.516;2023-08-31T09:13:38;3.63;;;2.00;;
12155;SDS011;6141;49.092;8.516;2023-08-31T09:16:26;4.63;;;2.23;;
12155;SDS011;6141;49.092;8.516;2023-08-31T09:19:21;3.10;;;1.80;;
12155;SDS011;6141;49.092;8.516;2023-08-31T09:22:10;4.30;;;2.20;;
12155;SDS011;6141;49.092;8.516;2023-08-31T09:24:59;3.63;;;1.80;;
12155;SDS011;6141;49.092;8.516;2023-08-31T09:27:48;3.40;;;2.10;;
12155;SDS011;6141;49.092;8.516;2023-08-31T09:30:36;3.80;;;1.90;;
12155;SDS011;6141;49.092;8.516;2023-08-31T09:33:26;2.43;;;1.67;;
12155;SDS011;6141;49.092;8.516;2023-08-31T09:36:16;8.50;;;2.50;;
12155;SDS011;6141;49.092;8.516;2023-08-31T09:39:05;4.53;;;2.07;;
12155;SDS011;6141;49.092;8.516;2023-08-31T09:41:55;3.13;;;2.40;;
12155;SDS011;6141;49.092;8.516;2023-08-31T09:44:45;4.77;;;2.07;;
12155;SDS011;6141;49.092;8.516;2023-08-31T09:47:38;4.00;;;2.03;;
12155;SDS011;6141;49.092;8.516;2023-08-31T09:50:27;4.53;;;1.90;;
12155;SDS011;6141;49.092;8.516;2023-08-31T09:53:18;2.90;;;1.93;;
12155;SDS011;6141;49.092;8.516;2023-08-31T09:56:08;3.37;;;2.00;;
12155;SDS011;6141;49.092;8.516;2023-08-31T09:59:04;4.13;;;2.20;;
12155;SDS011;6141;49.092;8.516;2023-08-31T10:01:53;4.57;;;2.30;;
12155;SDS011;6141;49.092;8.516;2023-08-31T10:04:43;4.47;;;2.20;;
12155;SDS011;6141;49.092;8.516;2023-08-31T10:07:32;5.13;;;1.97;;
12155;SDS011;6141;49.092;8.516;2023-08-31T10:10:22;4.93;;;1.80;;
12155;SDS011;6141;49.092;8.516;2023-08-31T10:13:11;5.57;;;2.40;;
12155;SDS011;6141;49.092;8.516;2023-08-31T10:16:02;3.77;;;2.20;;
12155;SDS011;6141;49.092;8.516;2023-08-31T10:18:52;4.23;;;2.23;;
12155;SDS011;6141;49.092;8.516;2023-08-31T10:21:40;4.57;;;2.20;;
12155;SDS011;6141;49.092;8.516;2023-08-31T10:27:54;3.97;;;2.13;;
12155;SDS011;6141;49.092;8.516;2023-08-31T10:30:43;6.07;;;2.50;;
12155;SDS011;6141;49.092;8.516;2023-08-31T10:33:54;3.97;;;2.07;;
12155;SDS011;6141;49.092;8.516;2023-08-31T10:36:45;6.23;;;2.40;;
12155;SDS011;6141;49.092;8.516;2023-08-31T10:39:46;4.77;;;2.10;;
12155;SDS011;6141;49.092;8.516;2023-08-31T10:42:41;4.80;;;1.97;;
12155;SDS011;6141;49.092;8.516;2023-08-31T10:45:31;4.73;;;2.00;;
12155;SDS011;6141;49.092;8.516;2023-08-31T10:48:33;3.33;;;2.23;;
12155;SDS011;6141;49.092;8.516;2023-08-31T10:51:50;4.10;;;2.10;;
12155;SDS011;6141;49.092;8.516;2023-08-31T10:54:41;5.13;;;2.40;;
12155;SDS011;6141;49.092;8.516;2023-08-31T10:57:32;4.63;;;2.20;;
12155;SDS011;6141;49.092;8.516;2023-08-31T11:03:59;4.03;;;2.33;;
12155;SDS011;6141;49.092;8.516;2023-08-31T11:06:48;4.60;;;2.20;;
12155;SDS011;6141;49.092;8.516;2023-08-31T11:09:37;6.93;;;2.20;;
12155;SDS011;6141;49.092;8.516;2023-08-31T11:12:25;5.50;;;2.00;;
12155;SDS011;6141;49.092;8.516;2023-08-31T11:15:14;3.43;;;1.90;;
12155;SDS011;6141;49.092;8.516;2023-08-31T11:18:07;3.37;;;2.10;;
12155;SDS011;6141;49.092;8.516;2023-08-31T11:20:56;5.60;;;2.30;;
12155;SDS011;6141;49.092;8.516;2023-08-31T11:23:47;4.27;;;2.10;;
12155;SDS011;6141;49.092;8.516;2023-08-31T11:26:36;4.90;;;2.13;;
12155;SDS011;6141;49.092;8.516;2023-08-31T11:29:25;5.57;;;2.47;;
12155;SDS011;6141;49.092;8.516;2023-08-31T11:32:14;5.07;;;2.17;;
12155;SDS011;6141;49.092;8.516;2023-08-31T11:35:05;4.63;;;2.37;;
12155;SDS011;6141;49.092;8.516;2023-08-31T11:37:55;4.60;;;2.13;;
12155;SDS011;6141;49.092;8.516;2023-08-31T11:40:45;5.50;;;2.50;;
12155;SDS011;6141;49.092;8.516;2023-08-31T11:43:33;4.07;;;2.27;;
12155;SDS011;6141;49.092;8.516;2023-08-31T11:46:22;5.80;;;2.40;;
12155;SDS011;6141;49.092;8.516;2023-08-31T11:49:11;5.07;;;2.00;;
12155;SDS011;6141;49.092;8.516;2023-08-31T11:52:01;5.07;;;2.23;;
12155;SDS011;6141;49.092;8.516;2023-08-31T11:54:52;4.27;;;2.30;;
12155;SDS011;6141;49.092;8.516;2023-08-31T11:57:47;5.00;;;2.50;;
12155;SDS011;6141;49.092;8.516;2023-08-31T12:00:37;6.77;;;2.37;;
12155;SDS011;6141;49.092;8.516;2023-08-31T12:03:26;5.50;;;2.30;;
12155;SDS011;6141;49.092;8.516;2023-08-31T12:06:35;6.10;;;2.40;;
12155;SDS011;6141;49.092;8.516;2023-08-31T12:09:25;4.40;;;2.30;;
12155;SDS011;6141;49.092;8.516;2023-08-31T12:12:25;4.50;;;2.23;;
12155;SDS011;6141;49.092;8.516;2023-08-31T12:15:15;4.47;;;2.17;;
12155;SDS011;6141;49.092;8.516;2023-08-31T12:18:08;4.57;;;1.90;;
12155;SDS011;6141;49.092;8.516;2023-08-31T12:20:59;4.63;;;2.23;;
12155;SDS011;6141;49.092;8.516;2023-08-31T12:23:54;7.63;;;2.50;;
12155;SDS011;6141;49.092;8.516;2023-08-31T12:26:50;4.73;;;2.60;;
12155;SDS011;6141;49.092;8.516;2023-08-31T12:29:43;5.00;;;2.40;;
12155;SDS011;6141;49.092;8.516;2023-08-31T12:32:36;6.80;;;2.30;;
12155;SDS011;6141;49.092;8.516;2023-08-31T12:35:24;5.50;;;2.40;;
12155;SDS011;6141;49.092;8.516;2023-08-31T12:38:15;5.87;;;1.97;;
12155;SDS011;6141;49.092;8.516;2023-08-31T12:41:10;4.30;;;2.40;;
12155;SDS011;6141;49.092;8.516;2023-08-31T12:44:02;4.70;;;2.33;;
12155;SDS011;6141;49.092;8.516;2023-08-31T12:46:51;3.70;;;2.03;;
12155;SDS011;6141;49.092;8.516;2023-08-31T12:49:41;6.20;;;2.30;;
12155;SDS011;6141;49.092;8.516;2023-08-31T12:52:31;5.67;;;2.20;;
12155;SDS011;6141;49.092;8.516;2023-08-31T12:55:22;4.07;;;2.00;;
12155;SDS011;6141;49.092;8.516;2023-08-31T12:58:14;4.93;;;2.30;;
12155;SDS011;6141;49.092;8.516;2023-08-31T13:01:13;6.20;;;2.23;;
12155;SDS011;6141;49.092;8.516;2023-08-31T13:04:01;3.73;;;2.10;;
12155;SDS011;6141;49.092;8.516;2023-08-31T13:06:51;4.73;;;2.37;;
12155;SDS011;6141;49.092;8.516;2023-08-31T13:09:40;5.07;;;2.30;;
12155;SDS011;6141;49.092;8.516;2023-08-31T13:12:34;5.13;;;2.20;;
12155;SDS011;6141;49.092;8.516;2023-08-31T13:15:23;5.07;;;2.30;;
12155;SDS011;6141;49.092;8.516;2023-08-31T13:18:13;7.70;;;2.40;;
12155;SDS011;6141;49.092;8.516;2023-08-31T13:21:03;4.93;;;2.23;;
12155;SDS011;6141;49.092;8.516;2023-08-31T13:23:52;3.27;;;1.90;;
12155;SDS011;6141;49.092;8.516;2023-08-31T13:26:42;5.03;;;2.20;;
12155;SDS011;6141;49.092;8.516;2023-08-31T13:29:38;4.00;;;2.20;;
12155;SDS011;6141;49.092;8.516;2023-08-31T13:32:30;6.20;;;2.30;;
12155;SDS011;6141;49.092;8.516;2023-08-31T13:35:31;5.03;;;2.40;;
12155;SDS011;6141;49.092;8.516;2023-08-31T13:38:24;5.63;;;2.23;;
12155;SDS011;6141;49.092;8.516;2023-08-31T13:41:23;6.93;;;2.57;;
12155;SDS011;6141;49.092;8.516;2023-08-31T13:44:17;5.50;;;2.13;;
12155;SDS011;6141;49.092;8.516;2023-08-31T13:47:07;5.40;;;2.30;;
12155;SDS011;6141;49.092;8.516;2023-08-31T13:49:56;5.27;;;2.00;;
12155;SDS011;6141;49.092;8.516;2023-08-31T13:52:45;5.57;;;2.40;;
12155;SDS011;6141;49.092;8.516;2023-08-31T13:55:34;7.07;;;2.03;;
12155;SDS011;6141;49.092;8.516;2023-08-31T13:58:23;5.10;;;2.40;;
12155;SDS011;6141;49.092;8.516;2023-08-31T14:01:11;4.73;;;2.27;;
12155;SDS011;6141;49.092;8.516;2023-08-31T14:04:03;6.47;;;2.40;;
12155;SDS011;6141;49.092;8.516;2023-08-31T14:06:52;5.63;;;2.33;;
12155;SDS011;6141;49.092;8.516;2023-08-31T14:09:42;6.60;;;2.00;;
12155;SDS011;6141;49.092;8.516;2023-08-31T14:12:31;2.53;;;1.87;;
12155;SDS011;6141;49.092;8.516;2023-08-31T14:27:27;5.50;;;2.60;;
12155;SDS011;6141;49.092;8.516;2023-08-31T14:30:16;3.43;;;2.13;;
12155;SDS011;6141;49.092;8.516;2023-08-31T14:33:05;4.43;;;2.33;;
12155;SDS011;6141;49.092;8.516;2023-08-31T14:35:53;7.73;;;2.53;;
12155;SDS011;6141;49.092;8.516;2023-08-31T14:38:42;5.63;;;2.43;;
12155;SDS011;6141;49.092;8.516;2023-08-31T14:41:32;4.13;;;2.17;;
12155;SDS011;6141;49.092;8.516;2023-08-31T14:44:21;7.03;;;2.80;;
12155;SDS011;6141;49.092;8.516;2023-08-31T14:47:10;9.03;;;2.43;;
12155;SDS011;6141;49.092;8.516;2023-08-31T14:49:58;5.47;;;2.30;;
12155;SDS011;6141;49.092;8.516;2023-08-31T14:52:47;6.53;;;2.77;;
12155;SDS011;6141;49.092;8.516;2023-08-31T14:55:36;7.50;;;2.43;;
12155;SDS011;6141;49.092;8.516;2023-08-31T14:58:25;5.33;;;2.30;;
12155;SDS011;6141;49.092;8.516;2023-08-31T15:01:15;5.73;;;2.63;;
12155;SDS011;6141;49.092;8.516;2023-08-31T15:04:04;5.27;;;2.30;;
12155;SDS011;6141;49.092;8.516;2023-08-31T15:06:53;6.03;;;2.50;;
12155;SDS011;6141;49.092;8.516;2023-08-31T15:09:43;6.37;;;2.70;;
12155;SDS011;6141;49.092;8.516;2023-08-31T15:12:32;6.60;;;2.40;;
12155;SDS011;6141;49.092;8.516;2023-08-31T15:15:21;5.13;;;2.33;;
12155;SDS011;6141;49.092;8.516;2023-08-31T15:18:11;5.30;;;2.27;;
12155;SDS011;6141;49.092;8.516;2023-08-31T15:21:00;6.37;;;2.70;;
12155;SDS011;6141;49.092;8.516;2023-08-31T15:23:49;7.07;;;2.90;;
12155;SDS011;6141;49.092;8.516;2023-08-31T15:26:38;4.53;;;2.40;;
12155;SDS011;6141;49.092;8.516;2023-08-31T15:29:26;6.73;;;2.60;;
12155;SDS011;6141;49.092;8.516;2023-08-31T15:32:15;7.27;;;3.03;;
12155;SDS011;6141;49.092;8.516;2023-08-31T15:35:06;5.33;;;2.50;;
12155;SDS011;6141;49.092;8.516;2023-08-31T15:37:58;4.33;;;2.37;;
12155;SDS011;6141;49.092;8.516;2023-08-31T15:40:47;4.93;;;2.40;;
12155;SDS011;6141;49.092;8.516;2023-08-31T15:43:40;4.03;;;2.30;;
12155;SDS011;6141;49.092;8.516;2023-08-31T15:46:31;4.20;;;2.40;;
12155;SDS011;6141;49.092;8.516;2023-08-31T15:49:26;5.87;;;2.23;;
12155;SDS011;6141;49.092;8.516;2023-08-31T15:52:19;5.63;;;2.40;;
12155;SDS011;6141;49.092;8.516;2023-08-31T15:55:07;8.93;;;2.80;;
12155;SDS011;6141;49.092;8.516;2023-08-31T15:58:01;5.57;;;2.37;;
12155;SDS011;6141;49.092;8.516;2023-08-31T16:00:50;4.83;;;2.47;;
12155;SDS011;6141;49.092;8.516;2023-08-31T16:03:47;5.73;;;2.77;;
12155;SDS011;6141;49.092;8.516;2023-08-31T16:06:38;4.73;;;2.40;;
12155;SDS011;6141;49.092;8.516;2023-08-31T16:09:33;6.43;;;2.60;;
12155;SDS011;6141;49.092;8.516;2023-08-31T16:12:22;5.67;;;2.27;;
12155;SDS011;6141;49.092;8.516;2023-08-31T16:15:10;5.43;;;2.40;;
12155;SDS011;6141;49.092;8.516;2023-08-31T16:17:58;5.63;;;2.47;;
12155;SDS011;6141;49.092;8.516;2023-08-31T16:20:47;5.20;;;2.30;;
12155;SDS011;6141;49.092;8.516;2023-08-31T16:23:35;5.37;;;2.60;;
12155;SDS011;6141;49.092;8.516;2023-08-31T16:26:25;5.73;;;2.80;;
12155;SDS011;6141;49.092;8.516;2023-08-31T16:29:13;6.57;;;2.53;;
12155;SDS011;6141;49.092;8.516;2023-08-31T16:32:03;4.97;;;2.30;;
12155;SDS011;6141;49.092;8.516;2023-08-31T16:34:52;5.07;;;2.50;;
12155;SDS011;6141;49.092;8.516;2023-08-31T16:37:40;6.27;;;2.40;;
12155;SDS011;6141;49.092;8.516;2023-08-31T16:40:29;4.13;;;2.10;;
12155;SDS011;6141;49.092;8.516;2023-08-31T16:43:23;5.17;;;2.47;;
12155;SDS011;6141;49.092;8.516;2023-08-31T16:46:16;4.27;;;2.37;;
12155;SDS011;6141;49.092;8.516;2023-08-31T16:49:06;4.17;;;2.40;;
12155;SDS011;6141;49.092;8.516;2023-08-31T16:51:55;6.13;;;2.63;;
12155;SDS011;6141;49.092;8.516;2023-08-31T16:54:43;6.90;;;2.67;;
12155;SDS011;6141;49.092;8.516;2023-08-31T16:57:32;5.10;;;2.57;;
12155;SDS011;6141;49.092;8.516;2023-08-31T17:00:23;4.83;;;2.47;;
12155;SDS011;6141;49.092;8.516;2023-08-31T17:03:15;4.80;;;2.40;;
12155;SDS011;6141;49.092;8.516;2023-08-31T17:06:04;4.43;;;2.40;;
12155;SDS011;6141;49.092;8.516;2023-08-31T17:08:54;3.63;;;2.40;;
12155;SDS011;6141;49.092;8.516;2023-08-31T17:11:42;6.23;;;2.60;;
12155;SDS011;6141;49.092;8.516;2023-08-31T17:14:39;6.67;;;2.30;;
12155;SDS011;6141;49.092;8.516;2023-08-31T17:17:33;6.13;;;2.30;;
12155;SDS011;6141;49.092;8.516;2023-08-31T17:20:21;5.00;;;2.60;;
12155;SDS011;6141;49.092;8.516;2023-08-31T17:23:10;6.63;;;2.70;;
12155;SDS011;6141;49.092;8.516;2023-08-31T17:25:58;8.17;;;2.83;;
12155;SDS011;6141;49.092;8.516;2023-08-31T17:28:47;5.50;;;2.10;;
12155;SDS011;6141;49.092;8.516;2023-08-31T17:31:35;5.23;;;2.20;;
12155;SDS011;6141;49.092;8.516;2023-08-31T17:34:25;4.87;;;2.43;;
12155;SDS011;6141;49.092;8.516;2023-08-31T17:37:14;5.60;;;2.40;;
12155;SDS011;6141;49.092;8.516;2023-08-31T17:40:03;6.10;;;2.37;;
12155;SDS011;6141;49.092;8.516;2023-08-31T17:42:54;5.63;;;3.07;;
12155;SDS011;6141;49.092;8.516;2023-08-31T17:45:42;4.33;;;2.90;;